sensor_id;sensor_type;location;lat;lon;timestamp;pressure;altitude;pressure_sealevel;temperature
49154;BMP280;49455;52.252;9.124;2023-05-07T00:04:49;99768.66;;;10.39
49154;BMP280;49455;52.252;9.124;2023-05-07T00:09:50;99774.59;;;10.37
49154;BMP280;49455;52.252;9.124;2023-05-07T00:14:50;99773.72;;;10.35
49154;BMP280;49455;52.252;9.124;2023-05-07T00:19:50;99774.50;;;10.32
49154;BMP280;49455;52.252;9.124;2023-05-07T00:24:51;99769.34;;;10.34
49154;BMP280;49455;52.252;9.124;2023-05-07T00:29:51;99769.34;;;10.34
49154;BMP280;49455;52.252;9.124;2023-05-07T00:34:52;99776.06;;;10.27
49154;BMP280;49455;52.252;9.124;2023-05-07T00:39:52;99789.13;;;10.32
49154;BMP280;49455;52.252;9.124;2023-05-07T00:44:53;99783.13;;;10.34
49154;BMP280;49455;52.252;9.124;2023-05-07T00:49:53;99788.72;;;10.19
49154;BMP280;49455;52.252;9.124;2023-05-07T00:54:54;99782.84;;;10.24
49154;BMP280;49455;52.252;9.124;2023-05-07T00:59:54;99798.13;;;10.18
49154;BMP280;49455;52.252;9.124;2023-05-07T01:04:55;99793.97;;;10.22
49154;BMP280;49455;52.252;9.124;2023-05-07T01:09:56;99795.94;;;10.30
49154;BMP280;49455;52.252;9.124;2023-05-07T01:14:57;99791.69;;;10.32
49154;BMP280;49455;52.252;9.124;2023-05-07T01:19:58;99796.03;;;10.33
49154;BMP280;49455;52.252;9.124;2023-05-07T01:25:02;99793.09;;;10.21
49154;BMP280;49455;52.252;9.124;2023-05-07T01:30:05;99798.81;;;10.11
49154;BMP280;49455;52.252;9.124;2023-05-07T01:35:07;99789.00;;;10.01
49154;BMP280;49455;52.252;9.124;2023-05-07T01:40:09;99792.53;;;10.03
49154;BMP280;49455;52.252;9.124;2023-05-07T01:45:10;99789.94;;;10.03
49154;BMP280;49455;52.252;9.124;2023-05-07T01:50:10;99785.44;;;9.97
49154;BMP280;49455;52.252;9.124;2023-05-07T01:55:11;99798.22;;;9.94
49154;BMP280;49455;52.252;9.124;2023-05-07T02:00:12;99810.44;;;9.99
49154;BMP280;49455;52.252;9.124;2023-05-07T02:05:19;99817.19;;;9.94
49154;BMP280;49455;52.252;9.124;2023-05-07T02:10:23;99825.38;;;10.07
49154;BMP280;49455;52.252;9.124;2023-05-07T02:15:23;99826.75;;;9.97
49154;BMP280;49455;52.252;9.124;2023-05-07T02:20:24;99819.63;;;9.90
49154;BMP280;49455;52.252;9.124;2023-05-07T02:25:24;99818.69;;;9.88
49154;BMP280;49455;52.252;9.124;2023-05-07T02:30:25;99818.44;;;9.80
49154;BMP280;49455;52.252;9.124;2023-05-07T02:35:28;99821.91;;;9.82
49154;BMP280;49455;52.252;9.124;2023-05-07T02:40:29;99822.56;;;9.75
49154;BMP280;49455;52.252;9.124;2023-05-07T02:45:29;99839.53;;;9.69
49154;BMP280;49455;52.252;9.124;2023-05-07T02:50:31;99828.50;;;9.73
49154;BMP280;49455;52.252;9.124;2023-05-07T02:55:31;99834.38;;;9.69
49154;BMP280;49455;52.252;9.124;2023-05-07T03:00:32;99819.81;;;9.71
49154;BMP280;49455;52.252;9.124;2023-05-07T03:05:43;99820.00;;;9.75
49154;BMP280;49455;52.252;9.124;2023-05-07T03:10:44;99824.06;;;9.69
49154;BMP280;49455;52.252;9.124;2023-05-07T03:15:44;99813.53;;;9.63
49154;BMP280;49455;52.252;9.124;2023-05-07T03:20:48;99807.69;;;9.42
49154;BMP280;49455;52.252;9.124;2023-05-07T03:25:49;99811.28;;;9.47
49154;BMP280;49455;52.252;9.124;2023-05-07T03:30:50;99815.28;;;9.38
49154;BMP280;49455;52.252;9.124;2023-05-07T03:35:50;99811.19;;;9.44
49154;BMP280;49455;52.252;9.124;2023-05-07T03:40:55;99815.38;;;9.41
49154;BMP280;49455;52.252;9.124;2023-05-07T03:45:56;99828.09;;;9.36
49154;BMP280;49455;52.252;9.124;2023-05-07T03:50:59;99823.72;;;9.34
49154;BMP280;49455;52.252;9.124;2023-05-07T03:56:04;99825.22;;;9.28
49154;BMP280;49455;52.252;9.124;2023-05-07T04:01:09;99825.19;;;9.26
49154;BMP280;49455;52.252;9.124;2023-05-07T04:06:09;99828.63;;;9.27
49154;BMP280;49455;52.252;9.124;2023-05-07T04:11:10;99833.25;;;9.36
49154;BMP280;49455;52.252;9.124;2023-05-07T04:16:11;99821.94;;;9.32
49154;BMP280;49455;52.252;9.124;2023-05-07T04:21:17;99834.94;;;9.35
49154;BMP280;49455;52.252;9.124;2023-05-07T04:26:18;99828.09;;;9.36
49154;BMP280;49455;52.252;9.124;2023-05-07T04:31:20;99833.25;;;9.36
49154;BMP280;49455;52.252;9.124;2023-05-07T04:36:24;99829.97;;;9.40
49154;BMP280;49455;52.252;9.124;2023-05-07T04:41:32;99834.47;;;9.46
49154;BMP280;49455;52.252;9.124;2023-05-07T04:46:32;99835.13;;;9.40
49154;BMP280;49455;52.252;9.124;2023-05-07T04:51:33;99856.91;;;9.48
49154;BMP280;49455;52.252;9.124;2023-05-07T04:56:34;99859.59;;;9.51
49154;BMP280;49455;52.252;9.124;2023-05-07T05:01:35;99861.41;;;9.54
49154;BMP280;49455;52.252;9.124;2023-05-07T05:06:36;99869.94;;;9.53
49154;BMP280;49455;52.252;9.124;2023-05-07T05:11:38;99881.03;;;9.50
49154;BMP280;49455;52.252;9.124;2023-05-07T05:16:39;99886.91;;;9.46
49154;BMP280;49455;52.252;9.124;2023-05-07T05:21:39;99888.91;;;9.53
49154;BMP280;49455;52.252;9.124;2023-05-07T05:26:43;99891.97;;;9.68
49154;BMP280;49455;52.252;9.124;2023-05-07T05:31:43;99890.47;;;9.74
49154;BMP280;49455;52.252;9.124;2023-05-07T05:36:44;99883.38;;;9.67
49154;BMP280;49455;52.252;9.124;2023-05-07T05:41:46;99876.19;;;9.84
49154;BMP280;49455;52.252;9.124;2023-05-07T05:46:47;99873.97;;;9.94
49154;BMP280;49455;52.252;9.124;2023-05-07T05:51:48;99874.09;;;9.98
49154;BMP280;49455;52.252;9.124;2023-05-07T05:56:49;99885.94;;;10.18
49154;BMP280;49455;52.252;9.124;2023-05-07T06:01:50;99884.38;;;10.23
49154;BMP280;49455;52.252;9.124;2023-05-07T06:06:50;99892.63;;;10.38
49154;BMP280;49455;52.252;9.124;2023-05-07T06:11:51;99879.97;;;10.47
49154;BMP280;49455;52.252;9.124;2023-05-07T06:16:52;99893.31;;;10.32
49154;BMP280;49455;52.252;9.124;2023-05-07T06:21:52;99894.34;;;10.39
49154;BMP280;49455;52.252;9.124;2023-05-07T06:26:53;99908.81;;;10.34
49154;BMP280;49455;52.252;9.124;2023-05-07T06:31:53;99912.25;;;10.33
49154;BMP280;49455;52.252;9.124;2023-05-07T06:36:55;99899.34;;;10.60
49154;BMP280;49455;52.252;9.124;2023-05-07T06:42:05;99904.41;;;10.30
49154;BMP280;49455;52.252;9.124;2023-05-07T06:47:07;99914.66;;;10.27
49154;BMP280;49455;52.252;9.124;2023-05-07T06:52:09;99919.34;;;10.40
49154;BMP280;49455;52.252;9.124;2023-05-07T06:57:10;99924.09;;;10.27
49154;BMP280;49455;52.252;9.124;2023-05-07T07:02:10;99939.44;;;10.48
49154;BMP280;49455;52.252;9.124;2023-05-07T07:07:11;99934.97;;;10.43
49154;BMP280;49455;52.252;9.124;2023-05-07T07:12:12;99934.72;;;10.35
49154;BMP280;49455;52.252;9.124;2023-05-07T07:17:14;99944.88;;;10.31
49154;BMP280;49455;52.252;9.124;2023-05-07T07:22:15;99946.38;;;10.51
49154;BMP280;49455;52.252;9.124;2023-05-07T07:27:15;99943.69;;;10.46
49154;BMP280;49455;52.252;9.124;2023-05-07T07:32:16;99948.50;;;10.36
49154;BMP280;49455;52.252;9.124;2023-05-07T07:37:17;99929.41;;;10.31
49154;BMP280;49455;52.252;9.124;2023-05-07T07:42:18;99940.59;;;10.31
49154;BMP280;49455;52.252;9.124;2023-05-07T07:47:19;99936.97;;;10.25
49154;BMP280;49455;52.252;9.124;2023-05-07T07:52:21;99942.41;;;10.34
49154;BMP280;49455;52.252;9.124;2023-05-07T07:57:22;99948.09;;;10.50
49154;BMP280;49455;52.252;9.124;2023-05-07T08:02:23;99962.81;;;10.53
49154;BMP280;49455;52.252;9.124;2023-05-07T08:07:24;99956.94;;;10.57
49154;BMP280;49455;52.252;9.124;2023-05-07T08:12:25;99960.50;;;10.61
49154;BMP280;49455;52.252;9.124;2023-05-07T08:17:25;99964.97;;;10.65
49154;BMP280;49455;52.252;9.124;2023-05-07T08:22:26;99948.50;;;10.62
49154;BMP280;49455;52.252;9.124;2023-05-07T08:27:26;99951.00;;;10.59
49154;BMP280;49455;52.252;9.124;2023-05-07T08:32:27;99955.81;;;10.49
49154;BMP280;49455;52.252;9.124;2023-05-07T08:37:28;99952.97;;;10.67
49154;BMP280;49455;52.252;9.124;2023-05-07T08:42:31;99958.50;;;10.79
49154;BMP280;49455;52.252;9.124;2023-05-07T08:47:40;99959.47;;;10.83
49154;BMP280;49455;52.252;9.124;2023-05-07T08:52:42;99959.44;;;10.81
49154;BMP280;49455;52.252;9.124;2023-05-07T08:57:43;99964.78;;;10.87
49154;BMP280;49455;52.252;9.124;2023-05-07T09:02:44;99964.34;;;11.01
49154;BMP280;49455;52.252;9.124;2023-05-07T09:07:45;99965.31;;;11.05
49154;BMP280;49455;52.252;9.124;2023-05-07T09:12:48;99958.09;;;11.22
49154;BMP280;49455;52.252;9.124;2023-05-07T09:17:50;99974.16;;;11.13
49154;BMP280;49455;52.252;9.124;2023-05-07T09:22:50;99977.53;;;11.39
49154;BMP280;49455;52.252;9.124;2023-05-07T09:27:51;99967.66;;;11.86
49154;BMP280;49455;52.252;9.124;2023-05-07T09:32:52;99971.41;;;11.97
49154;BMP280;49455;52.252;9.124;2023-05-07T09:37:58;99987.66;;;11.91
49154;BMP280;49455;52.252;9.124;2023-05-07T09:43:15;99994.94;;;12.04
49154;BMP280;49455;52.252;9.124;2023-05-07T09:48:22;99980.44;;;11.78
49154;BMP280;49455;52.252;9.124;2023-05-07T09:53:25;99976.88;;;12.07
49154;BMP280;49455;52.252;9.124;2023-05-07T09:58:27;99983.75;;;12.38
49154;BMP280;49455;52.252;9.124;2023-05-07T10:03:29;99973.78;;;12.90
49154;BMP280;49455;52.252;9.124;2023-05-07T10:08:37;99965.09;;;12.88
49154;BMP280;49455;52.252;9.124;2023-05-07T10:13:38;99975.22;;;12.77
49154;BMP280;49455;52.252;9.124;2023-05-07T10:18:41;99966.59;;;13.16
49154;BMP280;49455;52.252;9.124;2023-05-07T10:23:53;99967.78;;;13.31
49154;BMP280;49455;52.252;9.124;2023-05-07T10:29:03;99978.72;;;13.17
49154;BMP280;49455;52.252;9.124;2023-05-07T10:34:09;99998.00;;;13.28
49154;BMP280;49455;52.252;9.124;2023-05-07T10:39:10;99986.53;;;13.19
49154;BMP280;49455;52.252;9.124;2023-05-07T10:44:25;99982.16;;;13.99
49154;BMP280;49455;52.252;9.124;2023-05-07T10:49:26;99995.25;;;14.05
49154;BMP280;49455;52.252;9.124;2023-05-07T10:54:31;99985.81;;;14.09
49154;BMP280;49455;52.252;9.124;2023-05-07T10:59:41;99981.91;;;14.88
49154;BMP280;49455;52.252;9.124;2023-05-07T11:05:18;99986.19;;;14.83
49154;BMP280;49455;52.252;9.124;2023-05-07T11:10:19;99989.31;;;15.17
49154;BMP280;49455;52.252;9.124;2023-05-07T11:15:48;99986.59;;;15.76
49154;BMP280;49455;52.252;9.124;2023-05-07T11:21:06;99981.84;;;15.43
49154;BMP280;49455;52.252;9.124;2023-05-07T11:26:15;99984.53;;;15.48
49154;BMP280;49455;52.252;9.124;2023-05-07T11:31:20;99984.47;;;15.45
49154;BMP280;49455;52.252;9.124;2023-05-07T11:36:22;99986.91;;;15.32
49154;BMP280;49455;52.252;9.124;2023-05-07T11:41:36;99984.44;;;15.43
49154;BMP280;49455;52.252;9.124;2023-05-07T11:46:36;99990.47;;;15.37
49154;BMP280;49455;52.252;9.124;2023-05-07T11:51:37;99995.53;;;15.99
49154;BMP280;49455;52.252;9.124;2023-05-07T11:56:38;99979.03;;;16.00
49154;BMP280;49455;52.252;9.124;2023-05-07T12:01:39;99983.97;;;16.58
49154;BMP280;49455;52.252;9.124;2023-05-07T12:06:39;99982.25;;;16.62
49154;BMP280;49455;52.252;9.124;2023-05-07T12:11:40;99994.75;;;16.07
49154;BMP280;49455;52.252;9.124;2023-05-07T12:16:40;99978.22;;;16.05
49154;BMP280;49455;52.252;9.124;2023-05-07T12:21:41;99977.00;;;16.56
49154;BMP280;49455;52.252;9.124;2023-05-07T12:26:43;99960.56;;;16.67
49154;BMP280;49455;52.252;9.124;2023-05-07T12:31:43;99974.47;;;16.66
49154;BMP280;49455;52.252;9.124;2023-05-07T12:36:43;99971.69;;;16.45
49154;BMP280;49455;52.252;9.124;2023-05-07T12:41:54;99977.22;;;16.82
49154;BMP280;49455;52.252;9.124;2023-05-07T12:46:54;99972.25;;;17.21
49154;BMP280;49455;52.252;9.124;2023-05-07T12:51:55;99971.53;;;17.57
49154;BMP280;49455;52.252;9.124;2023-05-07T12:57:06;99978.19;;;17.00
49154;BMP280;49455;52.252;9.124;2023-05-07T13:02:07;99980.78;;;16.97
49154;BMP280;49455;52.252;9.124;2023-05-07T13:07:09;99973.41;;;17.90
49154;BMP280;49455;52.252;9.124;2023-05-07T13:12:10;99966.78;;;16.85
49154;BMP280;49455;52.252;9.124;2023-05-07T13:17:10;99953.25;;;17.54
49154;BMP280;49455;52.252;9.124;2023-05-07T13:22:11;99964.53;;;17.46
49154;BMP280;49455;52.252;9.124;2023-05-07T13:27:11;99964.59;;;17.57
49154;BMP280;49455;52.252;9.124;2023-05-07T13:32:12;99958.47;;;17.47
49154;BMP280;49455;52.252;9.124;2023-05-07T13:37:12;99960.31;;;17.77
49154;BMP280;49455;52.252;9.124;2023-05-07T13:42:12;99951.41;;;17.29
49154;BMP280;49455;52.252;9.124;2023-05-07T13:47:13;99949.00;;;17.80
49154;BMP280;49455;52.252;9.124;2023-05-07T13:52:13;99957.47;;;17.27
49154;BMP280;49455;52.252;9.124;2023-05-07T13:57:14;99945.25;;;17.17
49154;BMP280;49455;52.252;9.124;2023-05-07T14:02:14;99944.22;;;16.96
49154;BMP280;49455;52.252;9.124;2023-05-07T14:07:14;99950.44;;;17.13
49154;BMP280;49455;52.252;9.124;2023-05-07T14:12:15;99946.31;;;17.63
49154;BMP280;49455;52.252;9.124;2023-05-07T14:17:18;99937.66;;;17.78
49154;BMP280;49455;52.252;9.124;2023-05-07T14:22:20;99934.28;;;18.20
49154;BMP280;49455;52.252;9.124;2023-05-07T14:27:20;99940.38;;;18.41
49154;BMP280;49455;52.252;9.124;2023-05-07T14:32:21;99955.13;;;17.99
49154;BMP280;49455;52.252;9.124;2023-05-07T14:37:23;99949.97;;;18.47
49154;BMP280;49455;52.252;9.124;2023-05-07T14:42:23;99944.69;;;19.17
49154;BMP280;49455;52.252;9.124;2023-05-07T14:47:24;99953.47;;;18.51
49154;BMP280;49455;52.252;9.124;2023-05-07T14:52:24;99962.13;;;18.06
49154;BMP280;49455;52.252;9.124;2023-05-07T14:57:25;99963.91;;;18.07
49154;BMP280;49455;52.252;9.124;2023-05-07T15:02:25;99948.13;;;17.92
49154;BMP280;49455;52.252;9.124;2023-05-07T15:07:26;99966.38;;;17.76
49154;BMP280;49455;52.252;9.124;2023-05-07T15:12:26;99973.31;;;17.55
49154;BMP280;49455;52.252;9.124;2023-05-07T15:17:26;99956.88;;;17.96
49154;BMP280;49455;52.252;9.124;2023-05-07T15:22:27;99975.75;;;17.27
49154;BMP280;49455;52.252;9.124;2023-05-07T15:27:27;99975.91;;;17.55
49154;BMP280;49455;52.252;9.124;2023-05-07T15:32:27;99977.78;;;17.97
49154;BMP280;49455;52.252;9.124;2023-05-07T15:37:28;99976.81;;;17.64
49154;BMP280;49455;52.252;9.124;2023-05-07T15:42:30;99967.16;;;17.41
49154;BMP280;49455;52.252;9.124;2023-05-07T15:47:32;99966.44;;;17.89
49154;BMP280;49455;52.252;9.124;2023-05-07T15:52:32;99974.19;;;17.61
49154;BMP280;49455;52.252;9.124;2023-05-07T15:57:33;99964.63;;;17.74
49154;BMP280;49455;52.252;9.124;2023-05-07T16:02:34;99960.22;;;17.52
49154;BMP280;49455;52.252;9.124;2023-05-07T16:07:34;99964.28;;;17.01
49154;BMP280;49455;52.252;9.124;2023-05-07T16:12:36;99953.00;;;17.07
49154;BMP280;49455;52.252;9.124;2023-05-07T16:17:37;99961.25;;;16.44
49154;BMP280;49455;52.252;9.124;2023-05-07T16:22:37;99963.69;;;16.26
49154;BMP280;49455;52.252;9.124;2023-05-07T16:27:38;99966.81;;;15.93
49154;BMP280;49455;52.252;9.124;2023-05-07T16:32:38;99957.75;;;15.60
49154;BMP280;49455;52.252;9.124;2023-05-07T16:37:39;99968.16;;;15.58
49154;BMP280;49455;52.252;9.124;2023-05-07T16:42:40;99977.50;;;15.42
49154;BMP280;49455;52.252;9.124;2023-05-07T16:47:40;99982.38;;;15.18
49154;BMP280;49455;52.252;9.124;2023-05-07T16:52:41;99984.31;;;15.32
49154;BMP280;49455;52.252;9.124;2023-05-07T16:57:41;99994.19;;;14.95
49154;BMP280;49455;52.252;9.124;2023-05-07T17:02:42;99987.25;;;14.97
49154;BMP280;49455;52.252;9.124;2023-05-07T17:07:42;99980.63;;;15.14
49154;BMP280;49455;52.252;9.124;2023-05-07T17:12:42;99967.19;;;14.87
49154;BMP280;49455;52.252;9.124;2023-05-07T17:17:43;99976.41;;;14.68
49154;BMP280;49455;52.252;9.124;2023-05-07T17:22:43;99997.00;;;14.56
49154;BMP280;49455;52.252;9.124;2023-05-07T17:27:43;99995.44;;;14.16
49154;BMP280;49455;52.252;9.124;2023-05-07T17:32:44;99993.13;;;14.32
49154;BMP280;49455;52.252;9.124;2023-05-07T17:37:44;100000.69;;;14.17
49154;BMP280;49455;52.252;9.124;2023-05-07T17:42:45;100010.91;;;14.08
49154;BMP280;49455;52.252;9.124;2023-05-07T17:47:45;100012.56;;;13.62
49154;BMP280;49455;52.252;9.124;2023-05-07T17:52:45;100012.25;;;13.48
49154;BMP280;49455;52.252;9.124;2023-05-07T17:57:46;100020.22;;;13.17
49154;BMP280;49455;52.252;9.124;2023-05-07T18:02:46;100030.13;;;12.97
49154;BMP280;49455;52.252;9.124;2023-05-07T18:07:47;100031.19;;;13.04
49154;BMP280;49455;52.252;9.124;2023-05-07T18:12:47;100045.44;;;12.86
49154;BMP280;49455;52.252;9.124;2023-05-07T18:17:48;100036.34;;;12.68
49154;BMP280;49455;52.252;9.124;2023-05-07T18:22:48;100039.31;;;12.49
49154;BMP280;49455;52.252;9.124;2023-05-07T18:27:49;100046.94;;;12.43
49154;BMP280;49455;52.252;9.124;2023-05-07T18:32:49;100047.47;;;12.31
49154;BMP280;49455;52.252;9.124;2023-05-07T18:37:50;100042.75;;;12.16
49154;BMP280;49455;52.252;9.124;2023-05-07T18:42:50;100065.63;;;12.00
49154;BMP280;49455;52.252;9.124;2023-05-07T18:47:51;100062.66;;;11.87
49154;BMP280;49455;52.252;9.124;2023-05-07T18:52:51;100068.47;;;11.78
49154;BMP280;49455;52.252;9.124;2023-05-07T18:57:52;100061.19;;;11.66
49154;BMP280;49455;52.252;9.124;2023-05-07T19:02:52;100077.09;;;11.50
49154;BMP280;49455;52.252;9.124;2023-05-07T19:07:53;100087.34;;;11.47
49154;BMP280;49455;52.252;9.124;2023-05-07T19:12:53;100077.59;;;11.39
49154;BMP280;49455;52.252;9.124;2023-05-07T19:17:53;100081.03;;;11.39
49154;BMP280;49455;52.252;9.124;2023-05-07T19:22:54;100092.84;;;11.30
49154;BMP280;49455;52.252;9.124;2023-05-07T19:27:55;100092.31;;;11.14
49154;BMP280;49455;52.252;9.124;2023-05-07T19:32:58;100100.97;;;11.16
49154;BMP280;49455;52.252;9.124;2023-05-07T19:37:58;100112.69;;;11.05
49154;BMP280;49455;52.252;9.124;2023-05-07T19:42:59;100105.50;;;10.95
49154;BMP280;49455;52.252;9.124;2023-05-07T19:48:00;100113.06;;;10.89
49154;BMP280;49455;52.252;9.124;2023-05-07T19:53:00;100113.88;;;10.88
49154;BMP280;49455;52.252;9.124;2023-05-07T20:03:48;100116.69;;;10.69
49154;BMP280;49455;52.252;9.124;2023-05-07T20:08:49;100109.59;;;10.62
49154;BMP280;49455;52.252;9.124;2023-05-07T20:13:49;100112.78;;;10.56
49154;BMP280;49455;52.252;9.124;2023-05-07T20:18:50;100135.13;;;10.54
49154;BMP280;49455;52.252;9.124;2023-05-07T20:23:50;100134.50;;;10.60
49154;BMP280;49455;52.252;9.124;2023-05-07T20:28:51;100143.09;;;10.61
49154;BMP280;49455;52.252;9.124;2023-05-07T20:33:51;100149.16;;;10.61
49154;BMP280;49455;52.252;9.124;2023-05-07T20:38:52;100143.59;;;10.50
49154;BMP280;49455;52.252;9.124;2023-05-07T20:43:52;100146.91;;;10.46
49154;BMP280;49455;52.252;9.124;2023-05-07T20:48:52;100150.09;;;10.39
49154;BMP280;49455;52.252;9.124;2023-05-07T20:53:53;100151.06;;;10.42
49154;BMP280;49455;52.252;9.124;2023-05-07T20:58:53;100162.50;;;10.49
49154;BMP280;49455;52.252;9.124;2023-05-07T21:03:54;100164.75;;;10.40
49154;BMP280;49455;52.252;9.124;2023-05-07T21:08:54;100167.88;;;10.31
49154;BMP280;49455;52.252;9.124;2023-05-07T21:13:54;100166.31;;;10.35
49154;BMP280;49455;52.252;9.124;2023-05-07T21:18:55;100162.72;;;10.31
49154;BMP280;49455;52.252;9.124;2023-05-07T21:23:56;100170.34;;;10.27
49154;BMP280;49455;52.252;9.124;2023-05-07T21:28:56;100192.63;;;10.25
49154;BMP280;49455;52.252;9.124;2023-05-07T21:33:56;100188.19;;;10.21
49154;BMP280;49455;52.252;9.124;2023-05-07T21:38:57;100190.78;;;10.21
49154;BMP280;49455;52.252;9.124;2023-05-07T21:43:57;100187.47;;;10.25
49154;BMP280;49455;52.252;9.124;2023-05-07T21:48:58;100192.63;;;10.25
49154;BMP280;49455;52.252;9.124;2023-05-07T21:53:58;100192.19;;;10.13
49154;BMP280;49455;52.252;9.124;2023-05-07T21:58:58;100190.31;;;10.09
49154;BMP280;49455;52.252;9.124;2023-05-07T22:03:59;100187.16;;;10.16
49154;BMP280;49455;52.252;9.124;2023-05-07T22:08:59;100185.16;;;10.09
49154;BMP280;49455;52.252;9.124;2023-05-07T22:14:00;100178.16;;;10.07
49154;BMP280;49455;52.252;9.124;2023-05-07T22:19:00;100177.41;;;10.09
49154;BMP280;49455;52.252;9.124;2023-05-07T22:24:01;100182.53;;;10.08
49154;BMP280;49455;52.252;9.124;2023-05-07T22:29:01;100174.69;;;10.05
49154;BMP280;49455;52.252;9.124;2023-05-07T22:34:01;100179.97;;;10.09
49154;BMP280;49455;52.252;9.124;2023-05-07T22:39:02;100181.78;;;10.10
49154;BMP280;49455;52.252;9.124;2023-05-07T22:44:02;100192.88;;;10.08
49154;BMP280;49455;52.252;9.124;2023-05-07T22:49:03;100180.81;;;10.08
49154;BMP280;49455;52.252;9.124;2023-05-07T22:54:03;100182.44;;;10.05
49154;BMP280;49455;52.252;9.124;2023-05-07T22:59:04;100172.75;;;9.99
49154;BMP280;49455;52.252;9.124;2023-05-07T23:04:04;100174.28;;;9.95
49154;BMP280;49455;52.252;9.124;2023-05-07T23:09:05;100176.03;;;9.96
49154;BMP280;49455;52.252;9.124;2023-05-07T23:14:05;100175.03;;;9.92
49154;BMP280;49455;52.252;9.124;2023-05-07T23:19:05;100180.97;;;9.90
49154;BMP280;49455;52.252;9.124;2023-05-07T23:24:06;100186.84;;;9.87
49154;BMP280;49455;52.252;9.124;2023-05-07T23:29:06;100193.63;;;9.84
49154;BMP280;49455;52.252;9.124;2023-05-07T23:34:07;100194.41;;;9.83
49154;BMP280;49455;52.252;9.124;2023-05-07T23:39:07;100193.50;;;9.81
49154;BMP280;49455;52.252;9.124;2023-05-07T23:44:08;100199.47;;;9.80
49154;BMP280;49455;52.252;9.124;2023-05-07T23:49:08;100183.06;;;9.78
49154;BMP280;49455;52.252;9.124;2023-05-07T23:54:09;100196.78;;;9.77
49154;BMP280;49455;52.252;9.124;2023-05-07T23:59:09;100200.22;;;9.77
